createdAt,value
2019-05-22T00:00:17.518Z,49.07
2019-05-22T00:02:46.947Z,52.30
2019-05-22T00:05:17.812Z,51.50
2019-05-22T00:07:48.747Z,51.67
2019-05-22T00:10:20.496Z,53.70
2019-05-22T00:12:49.566Z,52.63
2019-05-22T00:15:20.585Z,52.30
2019-05-22T00:17:51.125Z,51.90
2019-05-22T00:20:23.279Z,53.73
2019-05-22T00:22:53.317Z,50.73
2019-05-22T00:25:24.713Z,50.77
2019-05-22T00:27:53.931Z,50.50
2019-05-22T00:30:24.744Z,51.67
2019-05-22T00:32:53.377Z,51.00
2019-05-22T00:35:25.311Z,51.27
2019-05-22T00:37:54.757Z,50.07
2019-05-22T00:40:25.084Z,50.03
2019-05-22T00:43:03.310Z,48.90
2019-05-22T00:45:25.328Z,51.23
2019-05-22T00:47:54.665Z,49.87
2019-05-22T00:50:28.539Z,50.73
2019-05-22T00:53:11.862Z,48.37
2019-05-22T00:55:48.201Z,48.93
2019-05-22T00:58:35.375Z,49.77
2019-05-22T01:01:18.361Z,49.50
2019-05-22T01:03:48.568Z,50.37
2019-05-22T01:06:18.932Z,51.17
2019-05-22T01:08:48.972Z,48.43
2019-05-22T01:11:20.942Z,52.07
2019-05-22T01:13:50.090Z,52.07
2019-05-22T01:16:19.351Z,48.80
2019-05-22T01:18:47.750Z,51.20
2019-05-22T01:21:21.382Z,54.10
2019-05-22T01:23:51.796Z,52.90
2019-05-22T01:26:22.267Z,53.83
2019-05-22T01:28:51.449Z,51.57
2019-05-22T01:31:25.041Z,52.60
2019-05-22T01:33:55.832Z,52.27
2019-05-22T01:36:27.450Z,54.33
2019-05-22T01:39:00.763Z,52.07
2019-05-22T01:41:37.716Z,51.57
2019-05-22T01:44:07.056Z,51.40
2019-05-22T01:46:37.225Z,52.30
2019-05-22T01:49:10.554Z,52.23
2019-05-22T01:51:39.175Z,52.10
2019-05-22T01:54:08.884Z,53.80
2019-05-22T01:56:39.414Z,51.40
2019-05-22T01:59:09.454Z,51.20
2019-05-22T02:01:37.940Z,53.43
2019-05-22T02:04:07.713Z,51.40
2019-05-22T02:06:37.130Z,52.27
2019-05-22T02:09:21.506Z,51.80
2019-05-22T02:11:54.442Z,53.33
2019-05-22T02:14:24.732Z,54.00
2019-05-22T02:16:57.117Z,52.60
2019-05-22T02:19:26.023Z,49.37
2019-05-22T02:21:55.391Z,47.90
2019-05-22T02:24:24.059Z,44.03
2019-05-22T02:26:52.837Z,46.00
2019-05-22T02:29:22.190Z,44.23
2019-05-22T02:31:55.485Z,45.80
2019-05-22T02:34:24.221Z,45.37
2019-05-22T02:36:53.788Z,45.20
2019-05-22T02:39:24.509Z,47.00
2019-05-22T02:42:00.475Z,48.23
2019-05-22T02:44:29.714Z,48.60
2019-05-22T02:47:16.527Z,49.30
2019-05-22T02:49:32.939Z,47.57
2019-05-22T02:52:02.972Z,48.33
2019-05-22T02:54:33.982Z,46.20
2019-05-22T02:57:03.432Z,44.83
2019-05-22T02:59:32.762Z,46.27
2019-05-22T03:02:03.799Z,47.53
2019-05-22T03:04:53.824Z,42.60
2019-05-22T03:07:26.531Z,43.47
2019-05-22T03:09:55.292Z,44.13
2019-05-22T03:12:24.381Z,44.50
2019-05-22T03:14:52.932Z,42.73
2019-05-22T03:17:28.216Z,44.90
2019-05-22T03:19:58.259Z,43.03
2019-05-22T03:22:28.970Z,42.60
2019-05-22T03:25:01.792Z,45.40
2019-05-22T03:27:42.954Z,44.63
2019-05-22T03:30:17.707Z,46.70
2019-05-22T03:32:47.814Z,44.10
2019-05-22T03:35:18.679Z,44.33
2019-05-22T03:37:47.419Z,44.53
2019-05-22T03:40:16.461Z,43.10
2019-05-22T03:42:46.099Z,43.50
2019-05-22T03:45:15.500Z,45.17
2019-05-22T03:47:45.367Z,42.97
2019-05-22T03:50:15.279Z,44.90
2019-05-22T03:52:43.842Z,41.30
2019-05-22T03:55:12.967Z,43.00
2019-05-22T03:57:42.511Z,42.80
2019-05-22T04:00:15.583Z,41.33
2019-05-22T04:02:47.044Z,42.97
2019-05-22T04:05:19.246Z,43.30
2019-05-22T04:07:48.883Z,41.63
2019-05-22T04:10:18.929Z,39.97
2019-05-22T04:12:48.382Z,39.87
2019-05-22T04:15:17.775Z,41.33
2019-05-22T04:17:47.083Z,40.70
2019-05-22T04:20:19.172Z,40.13
2019-05-22T04:22:49.011Z,38.53
2019-05-22T04:25:17.661Z,41.03
2019-05-22T04:27:46.067Z,40.27
2019-05-22T04:30:17.044Z,39.53
2019-05-22T04:32:46.243Z,39.10
2019-05-22T04:35:17.660Z,36.57
2019-05-22T04:37:48.106Z,36.30
2019-05-22T04:40:26.062Z,38.50
2019-05-22T04:42:56.713Z,36.67
2019-05-22T04:45:26.633Z,37.80
2019-05-22T04:47:58.642Z,40.37
2019-05-22T04:50:29.053Z,36.40
2019-05-22T04:52:58.935Z,38.37
2019-05-22T04:55:29.504Z,37.50
2019-05-22T04:58:00.956Z,37.43
2019-05-22T05:00:31.053Z,36.73
2019-05-22T05:02:59.946Z,37.33
2019-05-22T05:05:36.160Z,38.03
2019-05-22T05:08:05.548Z,38.00
2019-05-22T05:10:34.311Z,36.50
2019-05-22T05:13:03.869Z,36.40
2019-05-22T05:15:32.294Z,38.00
2019-05-22T05:18:00.689Z,36.90
2019-05-22T05:20:29.184Z,37.10
2019-05-22T05:22:57.571Z,35.00
2019-05-22T05:25:25.968Z,36.50
2019-05-22T05:27:55.914Z,33.87
2019-05-22T05:30:26.674Z,35.90
2019-05-22T05:32:56.393Z,35.40
2019-05-22T05:35:27.825Z,36.30
2019-05-22T05:37:56.555Z,37.67
2019-05-22T05:40:38.823Z,35.07
2019-05-22T05:43:16.201Z,37.27
2019-05-22T05:45:47.405Z,34.33
2019-05-22T05:48:21.227Z,34.53
2019-05-22T05:50:58.824Z,36.67
2019-05-22T05:53:29.301Z,35.77
2019-05-22T05:56:14.893Z,36.43
2019-05-22T05:58:44.668Z,35.50
2019-05-22T06:01:20.186Z,35.73
2019-05-22T06:03:48.639Z,33.97
2019-05-22T06:06:27.101Z,34.37
2019-05-22T06:09:00.201Z,33.07
2019-05-22T06:11:34.365Z,35.73
2019-05-22T06:14:03.900Z,34.67
2019-05-22T06:16:57.670Z,33.20
2019-05-22T06:19:28.400Z,33.27
2019-05-22T06:21:58.102Z,33.10
2019-05-22T06:24:38.251Z,32.97
2019-05-22T06:27:16.258Z,32.00
2019-05-22T06:30:06.176Z,32.33
2019-05-22T06:33:13.667Z,31.07
2019-05-22T06:35:44.290Z,29.93
2019-05-22T06:38:31.138Z,32.50
2019-05-22T06:40:59.915Z,29.27
2019-05-22T06:43:31.584Z,30.10
2019-05-22T06:46:00.002Z,28.80
2019-05-22T06:48:28.464Z,28.27
2019-05-22T06:50:57.730Z,27.53
2019-05-22T06:53:26.371Z,26.60
2019-05-22T06:55:54.845Z,26.17
2019-05-22T06:58:23.252Z,25.77
2019-05-22T07:00:51.716Z,24.13
2019-05-22T07:03:20.706Z,25.77
2019-05-22T07:05:50.392Z,24.27
2019-05-22T07:08:19.775Z,23.30
2019-05-22T07:10:48.799Z,21.87
2019-05-22T07:13:17.943Z,22.30
2019-05-22T07:15:50.138Z,21.93
2019-05-22T07:18:19.974Z,23.63
2019-05-22T07:20:49.741Z,21.70
2019-05-22T07:23:21.306Z,23.07
2019-05-22T07:25:51.511Z,22.93
2019-05-22T07:28:20.567Z,22.63
2019-05-22T07:30:49.348Z,23.40
2019-05-22T07:33:19.686Z,23.57
2019-05-22T07:36:07.971Z,24.93
2019-05-22T07:38:20.041Z,24.53
2019-05-22T07:40:51.214Z,24.67
2019-05-22T07:43:21.354Z,26.50
2019-05-22T07:45:51.564Z,26.77
2019-05-22T07:48:21.213Z,27.23
2019-05-22T07:50:51.885Z,25.63
2019-05-22T07:53:20.601Z,27.30
2019-05-22T07:55:51.114Z,27.17
2019-05-22T07:58:21.276Z,27.77
2019-05-22T08:00:51.680Z,27.00
2019-05-22T08:03:21.545Z,26.63
2019-05-22T08:05:55.385Z,26.00
2019-05-22T08:08:25.490Z,26.13
2019-05-22T08:10:55.885Z,26.37
2019-05-22T08:13:26.689Z,26.07
2019-05-22T08:15:55.264Z,25.07
2019-05-22T08:18:25.187Z,27.17
2019-05-22T08:20:53.885Z,26.33
2019-05-22T08:23:23.352Z,23.37
2019-05-22T08:25:52.441Z,21.90
2019-05-22T08:28:22.265Z,24.07
2019-05-22T08:30:51.539Z,21.73
2019-05-22T08:33:21.763Z,22.40
2019-05-22T08:35:51.606Z,22.20
2019-05-22T08:38:23.712Z,21.73
2019-05-22T08:40:52.803Z,22.00
2019-05-22T08:43:22.311Z,21.13
2019-05-22T08:45:51.148Z,22.23
2019-05-22T08:48:20.897Z,22.47
2019-05-22T08:50:50.549Z,22.17
2019-05-22T08:53:19.677Z,22.30
2019-05-22T08:55:49.503Z,22.07
2019-05-22T08:58:19.065Z,19.57
2019-05-22T09:00:48.536Z,21.07
2019-05-22T09:03:24.159Z,19.10
2019-05-22T09:05:52.989Z,19.70
2019-05-22T09:08:22.083Z,21.10
2019-05-22T09:10:50.932Z,18.90
2019-05-22T09:13:19.340Z,20.73
2019-05-22T09:15:48.342Z,20.40
2019-05-22T09:18:17.369Z,21.20
2019-05-22T09:20:49.317Z,21.80
2019-05-22T09:23:17.460Z,21.00
2019-05-22T09:25:46.526Z,21.30
2019-05-22T09:28:15.271Z,21.90
2019-05-22T09:30:44.248Z,21.70
2019-05-22T09:33:13.464Z,20.50
2019-05-22T09:35:42.383Z,23.60
2019-05-22T09:38:11.165Z,22.80
2019-05-22T09:40:40.557Z,21.70
2019-05-22T09:43:09.173Z,20.63
2019-05-22T09:45:37.585Z,21.80
2019-05-22T09:48:07.541Z,19.77
2019-05-22T09:50:36.296Z,20.77
2019-05-22T09:53:06.785Z,21.30
2019-05-22T09:55:36.757Z,21.47
2019-05-22T09:58:05.729Z,20.97
2019-05-22T10:00:38.876Z,20.03
2019-05-22T10:03:05.692Z,20.57
2019-05-22T10:05:34.537Z,20.80
2019-05-22T10:08:05.550Z,21.40
2019-05-22T10:10:34.289Z,22.07
2019-05-22T10:13:07.188Z,21.30
2019-05-22T10:15:35.670Z,21.37
2019-05-22T10:18:07.414Z,21.70
2019-05-22T10:20:36.471Z,22.77
2019-05-22T10:23:15.526Z,22.20
2019-05-22T10:25:37.075Z,21.30
2019-05-22T10:28:06.942Z,22.73
2019-05-22T10:30:35.443Z,23.30
2019-05-22T10:33:04.760Z,20.93
2019-05-22T10:35:38.309Z,23.20
2019-05-22T10:38:07.341Z,22.67
2019-05-22T10:40:36.052Z,23.00
2019-05-22T10:43:04.733Z,24.70
2019-05-22T10:45:33.583Z,22.23
2019-05-22T10:48:02.651Z,22.70
2019-05-22T10:50:31.027Z,21.73
2019-05-22T10:52:59.428Z,21.73
2019-05-22T10:55:27.823Z,21.20
2019-05-22T10:57:56.529Z,23.60
2019-05-22T11:00:25.928Z,23.20
2019-05-22T11:02:54.357Z,22.43
2019-05-22T11:05:23.316Z,23.07
2019-05-22T11:07:52.456Z,21.97
2019-05-22T11:10:24.247Z,22.67
2019-05-22T11:12:53.087Z,23.63
2019-05-22T11:15:23.223Z,23.47
2019-05-22T11:17:52.831Z,21.30
2019-05-22T11:20:22.541Z,23.77
2019-05-22T11:22:51.729Z,23.37
2019-05-22T11:25:21.546Z,21.27
2019-05-22T11:27:50.373Z,22.10
2019-05-22T11:30:20.370Z,20.30
2019-05-22T11:32:49.344Z,20.90
2019-05-22T11:35:20.082Z,21.17
2019-05-22T11:37:48.571Z,19.60
2019-05-22T11:40:18.853Z,20.07
2019-05-22T11:42:47.881Z,22.60
2019-05-22T11:45:16.807Z,20.70
2019-05-22T11:47:45.751Z,20.10
2019-05-22T11:50:16.625Z,20.50
2019-05-22T11:52:46.855Z,19.80
2019-05-22T11:55:16.562Z,21.03
2019-05-22T11:57:46.974Z,23.57
2019-05-22T12:00:18.289Z,21.90
2019-05-22T12:02:47.955Z,22.47
2019-05-22T12:05:18.097Z,22.20
2019-05-22T12:07:48.001Z,21.90
2019-05-22T12:10:18.735Z,21.30
2019-05-22T12:12:47.963Z,20.40
2019-05-22T12:15:18.448Z,21.60
2019-05-22T12:17:50.484Z,20.90
2019-05-22T12:20:20.741Z,19.90
2019-05-22T12:22:49.322Z,20.37
2019-05-22T12:25:18.825Z,21.07
2019-05-22T12:27:47.841Z,20.50
2019-05-22T12:30:17.309Z,19.47
2019-05-22T12:32:46.689Z,22.53
2019-05-22T12:35:15.843Z,21.60
2019-05-22T12:37:45.417Z,19.13
2019-05-22T12:40:17.157Z,18.53
2019-05-22T12:42:46.376Z,18.53
2019-05-22T12:45:16.320Z,18.30
2019-05-22T12:47:45.621Z,18.23
2019-05-22T12:50:17.202Z,19.20
2019-05-22T12:52:49.005Z,20.20
2019-05-22T12:55:17.652Z,19.60
2019-05-22T12:57:48.638Z,20.63
2019-05-22T13:00:20.905Z,18.73
2019-05-22T13:02:49.895Z,21.90
2019-05-22T13:05:19.141Z,20.80
2019-05-22T13:07:47.891Z,23.17
2019-05-22T13:10:17.501Z,21.37
2019-05-22T13:12:46.625Z,20.13
2019-05-22T13:15:15.561Z,21.33
2019-05-22T13:17:44.582Z,20.83
2019-05-22T13:20:15.394Z,20.57
2019-05-22T13:22:47.564Z,21.60
2019-05-22T13:25:17.363Z,21.70
2019-05-22T13:27:46.071Z,21.40
2019-05-22T13:30:17.325Z,22.37
2019-05-22T13:32:47.294Z,20.43
2019-05-22T13:35:17.993Z,19.60
2019-05-22T13:37:46.474Z,20.90
2019-05-22T13:40:27.258Z,18.80
2019-05-22T13:42:46.571Z,19.97
2019-05-22T13:45:28.509Z,18.07
2019-05-22T13:47:47.505Z,20.30
2019-05-22T13:50:17.552Z,18.93
2019-05-22T13:52:47.433Z,20.93
2019-05-22T13:55:17.871Z,20.53
2019-05-22T13:57:47.343Z,19.80
2019-05-22T14:00:19.388Z,21.53
2019-05-22T14:02:47.884Z,19.70
2019-05-22T14:05:19.913Z,19.47
2019-05-22T14:07:48.902Z,19.63
2019-05-22T14:10:17.927Z,20.90
2019-05-22T14:12:46.923Z,21.13
2019-05-22T14:15:16.267Z,19.60
2019-05-22T14:17:45.176Z,21.43
2019-05-22T14:20:16.440Z,19.70
2019-05-22T14:22:45.075Z,20.20
2019-05-22T14:28:12.192Z,20.37
2019-05-22T14:30:42.703Z,19.30
2019-05-22T14:33:11.619Z,20.80
2019-05-22T14:35:48.427Z,19.83
2019-05-22T14:38:16.371Z,19.80
2019-05-22T14:40:48.364Z,19.13
2019-05-22T14:43:18.630Z,19.57
2019-05-22T14:45:49.474Z,19.03
2019-05-22T14:48:17.665Z,18.10
2019-05-22T14:50:50.149Z,17.23
2019-05-22T14:53:19.040Z,17.60
2019-05-22T14:55:49.917Z,17.70
2019-05-22T14:58:19.253Z,18.33
2019-05-22T15:00:48.611Z,17.30
2019-05-22T15:03:17.617Z,18.73
2019-05-22T15:05:46.135Z,19.20
2019-05-22T15:08:14.760Z,19.60
2019-05-22T15:10:43.650Z,17.20
2019-05-22T15:13:12.045Z,18.80
2019-05-22T15:15:41.079Z,19.43
2019-05-22T15:18:09.577Z,18.60
2019-05-22T15:20:46.634Z,19.03
2019-05-22T15:23:15.598Z,17.80
2019-05-22T15:25:43.999Z,19.07
2019-05-22T15:28:12.767Z,19.70
2019-05-22T15:30:41.510Z,19.30
2019-05-22T15:33:09.935Z,17.73
2019-05-22T15:35:38.670Z,15.93
2019-05-22T15:38:09.275Z,16.90
2019-05-22T15:40:38.353Z,16.90
2019-05-22T15:43:09.442Z,16.30
2019-05-22T15:45:42.359Z,16.77
2019-05-22T15:48:25.616Z,18.03
2019-05-22T15:51:01.553Z,18.40
2019-05-22T15:53:33.364Z,15.87
2019-05-22T15:56:05.536Z,15.40
2019-05-22T15:58:35.027Z,15.87
2019-05-22T16:01:06.636Z,14.73
2019-05-22T16:03:35.810Z,15.03
2019-05-22T16:06:05.740Z,14.37
2019-05-22T16:08:34.681Z,14.93
2019-05-22T16:11:04.894Z,14.40
2019-05-22T16:13:35.501Z,14.00
2019-05-22T16:16:06.322Z,14.07
2019-05-22T16:18:37.123Z,13.13
2019-05-22T16:21:07.621Z,13.83
2019-05-22T16:23:37.375Z,12.23
2019-05-22T16:26:08.338Z,13.27
2019-05-22T16:28:39.488Z,13.57
2019-05-22T16:31:10.433Z,14.10
2019-05-22T16:33:41.857Z,14.50
2019-05-22T16:36:11.007Z,14.23
2019-05-22T16:38:39.955Z,13.03
2019-05-22T16:41:10.206Z,13.90
2019-05-22T16:43:48.983Z,13.93
2019-05-22T16:46:15.186Z,14.20
2019-05-22T16:48:44.457Z,16.37
2019-05-22T16:51:15.144Z,15.13
2019-05-22T16:53:53.510Z,16.77
2019-05-22T16:56:23.460Z,14.40
2019-05-22T16:58:52.922Z,14.50
2019-05-22T17:01:22.550Z,15.47
2019-05-22T17:03:54.175Z,13.77
2019-05-22T17:06:24.298Z,14.87
2019-05-22T17:08:55.989Z,15.33
2019-05-22T17:11:25.526Z,16.70
2019-05-22T17:13:57.734Z,15.50
2019-05-22T17:16:28.582Z,14.53
2019-05-22T17:18:58.312Z,13.03
2019-05-22T17:21:26.941Z,13.90
2019-05-22T17:23:55.991Z,15.03
2019-05-22T17:26:25.405Z,13.47
2019-05-22T17:28:54.563Z,14.87
2019-05-22T17:31:25.874Z,14.40
2019-05-22T17:33:55.019Z,13.57
2019-05-22T17:36:25.150Z,12.77
2019-05-22T17:38:57.831Z,13.60
2019-05-22T17:41:28.652Z,14.27
2019-05-22T17:43:57.218Z,14.10
2019-05-22T17:46:28.707Z,14.13
2019-05-22T17:48:59.245Z,14.30
2019-05-22T17:51:27.968Z,13.77
2019-05-22T17:53:56.841Z,16.07
2019-05-22T17:56:25.485Z,14.93
2019-05-22T17:58:53.883Z,15.50
2019-05-22T18:01:22.284Z,13.57
2019-05-22T18:03:51.317Z,14.67
2019-05-22T18:06:19.909Z,12.80
2019-05-22T18:08:48.567Z,14.67
2019-05-22T18:11:17.360Z,15.03
2019-05-22T18:13:57.845Z,15.53
2019-05-22T18:16:26.583Z,14.10
2019-05-22T18:18:55.792Z,14.50
2019-05-22T18:21:24.829Z,14.60
2019-05-22T18:23:53.475Z,14.43
2019-05-22T18:26:22.235Z,15.00
2019-05-22T18:28:50.627Z,12.70
2019-05-22T18:31:19.267Z,11.90
2019-05-22T18:33:47.749Z,12.83
2019-05-22T18:36:16.263Z,13.83
2019-05-22T18:38:44.729Z,14.70
2019-05-22T18:41:13.412Z,13.90
2019-05-22T18:43:46.865Z,13.10
2019-05-22T18:46:15.365Z,12.30
2019-05-22T18:48:43.988Z,11.53
2019-05-22T18:51:12.727Z,11.60
2019-05-22T18:53:41.258Z,12.83
2019-05-22T18:56:11.047Z,11.23
2019-05-22T18:58:39.968Z,12.53
2019-05-22T19:01:09.006Z,13.30
2019-05-22T19:03:37.588Z,12.67
2019-05-22T19:06:05.977Z,13.30
2019-05-22T19:08:35.998Z,13.27
2019-05-22T19:11:08.478Z,13.93
2019-05-22T19:13:37.278Z,14.80
2019-05-22T19:16:06.782Z,13.60
2019-05-22T19:18:35.543Z,13.40
2019-05-22T19:21:05.255Z,13.67
2019-05-22T19:23:33.762Z,13.60
2019-05-22T19:26:05.467Z,13.13
2019-05-22T19:28:42.730Z,13.23
2019-05-22T19:31:03.258Z,14.33
2019-05-22T19:33:31.845Z,14.57
2019-05-22T19:36:00.570Z,14.20
2019-05-22T19:38:28.974Z,13.60
2019-05-22T19:40:58.066Z,13.10
2019-05-22T19:43:26.561Z,13.60
2019-05-22T19:45:55.249Z,13.90
2019-05-22T19:48:23.767Z,13.57
2019-05-22T19:50:52.235Z,14.37
2019-05-22T19:53:24.534Z,14.00
2019-05-22T19:55:53.773Z,14.20
2019-05-22T19:58:22.526Z,14.20
2019-05-22T20:00:51.486Z,14.27
2019-05-22T20:03:19.873Z,14.53
2019-05-22T20:05:48.767Z,13.87
2019-05-22T20:08:17.255Z,13.80
2019-05-22T20:10:46.314Z,13.87
2019-05-22T20:13:16.075Z,14.40
2019-05-22T20:15:44.540Z,14.10
2019-05-22T20:18:13.473Z,14.13
2019-05-22T20:20:41.996Z,13.93
2019-05-22T20:23:11.123Z,14.23
2019-05-22T20:25:39.816Z,13.80
2019-05-22T20:28:09.314Z,13.10
2019-05-22T20:30:38.162Z,13.90
2019-05-22T20:33:07.171Z,14.33
2019-05-22T20:35:36.261Z,13.43
2019-05-22T20:38:05.180Z,14.20
2019-05-22T20:40:33.781Z,15.00
2019-05-22T20:43:02.678Z,13.43
2019-05-22T20:45:35.953Z,13.20
2019-05-22T20:48:07.761Z,14.67
2019-05-22T20:50:37.424Z,14.20
2019-05-22T20:53:07.476Z,14.30
2019-05-22T20:55:36.865Z,14.67
2019-05-22T20:58:06.083Z,15.00
2019-05-22T21:00:34.979Z,15.37
2019-05-22T21:03:06.246Z,15.00
2019-05-22T21:05:35.979Z,14.70
2019-05-22T21:08:07.980Z,15.07
2019-05-22T21:10:37.539Z,13.93
2019-05-22T21:13:08.335Z,15.30
2019-05-22T21:15:37.117Z,14.77
2019-05-22T21:18:07.466Z,15.20
2019-05-22T21:20:35.922Z,15.50
2019-05-22T21:23:04.321Z,14.10
2019-05-22T21:25:32.733Z,14.93
2019-05-22T21:28:01.286Z,14.27
2019-05-22T21:30:29.684Z,14.87
2019-05-22T21:32:58.581Z,15.10
2019-05-22T21:35:27.300Z,14.83
2019-05-22T21:37:56.602Z,14.20
2019-05-22T21:40:25.708Z,13.73
2019-05-22T21:42:55.396Z,15.40
2019-05-22T21:45:24.021Z,14.90
2019-05-22T21:47:53.132Z,14.33
2019-05-22T21:50:21.775Z,14.70
2019-05-22T21:52:50.339Z,14.77
2019-05-22T21:55:20.649Z,15.70
2019-05-22T21:57:49.822Z,15.40
2019-05-22T22:00:40.678Z,16.00
2019-05-22T22:03:12.342Z,17.80
2019-05-22T22:05:41.805Z,16.30
2019-05-22T22:08:11.385Z,16.00
2019-05-22T22:10:40.149Z,16.77
2019-05-22T22:13:08.896Z,17.10
2019-05-22T22:15:44.183Z,16.70
2019-05-22T22:18:13.120Z,16.20
2019-05-22T22:20:42.803Z,16.50
2019-05-22T22:23:13.197Z,18.00
2019-05-22T22:25:42.602Z,17.37
2019-05-22T22:28:13.506Z,16.77
2019-05-22T22:30:58.941Z,17.53
2019-05-22T22:33:32.115Z,17.00
2019-05-22T22:36:02.366Z,16.93
2019-05-22T22:38:32.873Z,16.30
2019-05-22T22:41:02.410Z,16.80
2019-05-22T22:43:32.931Z,16.77
2019-05-22T22:46:16.423Z,16.90
2019-05-22T22:48:46.421Z,17.87
2019-05-22T22:51:18.192Z,21.07
2019-05-22T22:53:46.589Z,19.20
2019-05-22T22:56:17.396Z,21.43
2019-05-22T22:58:46.565Z,20.20
2019-05-22T23:01:21.352Z,19.07
2019-05-22T23:03:52.104Z,20.63
2019-05-22T23:06:21.354Z,18.43
2019-05-22T23:08:50.224Z,19.27
2019-05-22T23:11:21.231Z,19.03
2019-05-22T23:13:50.292Z,20.13
2019-05-22T23:16:20.897Z,19.07
2019-05-22T23:19:06.732Z,19.10
2019-05-22T23:21:35.620Z,21.00
2019-05-22T23:24:04.048Z,19.87
2019-05-22T23:26:33.792Z,19.97
2019-05-22T23:29:02.246Z,19.40
2019-05-22T23:31:31.608Z,19.47
2019-05-22T23:34:00.394Z,19.57
2019-05-22T23:36:29.665Z,19.57
2019-05-22T23:39:00.574Z,19.57
2019-05-22T23:41:32.376Z,20.20
2019-05-22T23:44:01.074Z,20.90
2019-05-22T23:46:32.409Z,18.47
2019-05-22T23:49:02.115Z,19.67
2019-05-22T23:51:30.969Z,19.57
2019-05-22T23:54:01.148Z,21.13
2019-05-22T23:56:30.564Z,22.07
2019-05-22T23:58:58.950Z,22.03
